Time;durP1;ratioP1;P1;durP2;ratioP2;P2;SDS_P1;SDS_P2;PMS_P1;PMS_P2;Temp;Humidity;BMP_temperature;BMP_pressure;BME280_temperature;BME280_humidity;BME280_pressure;Samples;Min_cycle;Max_cycle;Signal;HPM_P1;HPM_P2
2023/04/07 00:00:32;;;;;;;0.20;0.20;;;;;;;24.74;31.70;99278.88;1847406;76;28086;-47
2023/04/07 00:03:21;;;;;;;0.17;0.17;;;;;;;24.78;31.68;99281.16;1797737;78;28398;-47
2023/04/07 00:06:10;;;;;;;0.28;0.28;;;;;;;24.78;31.67;99282.53;1874582;75;27989;-47
2023/04/07 00:08:58;;;;;;;0.20;0.20;;;;;;;24.78;31.70;99281.16;1855988;76;28384;-46
2023/04/07 00:11:47;;;;;;;0.20;0.20;;;;;;;24.81;31.68;99280.66;1866512;75;28063;-48
2023/04/07 00:14:35;;;;;;;0.60;0.20;;;;;;;24.84;31.65;99281.50;1854901;76;28132;-47
2023/04/07 00:17:24;;;;;;;0.25;0.25;;;;;;;24.82;31.68;99282.30;1855837;75;28169;-47
2023/04/07 00:20:13;;;;;;;0.10;0.10;;;;;;;24.83;31.67;99281.23;1859168;76;28159;-46
2023/04/07 00:23:01;;;;;;;0.30;0.30;;;;;;;24.85;31.67;99281.27;1862426;75;28044;-45
2023/04/07 00:25:50;;;;;;;0.10;0.10;;;;;;;24.87;31.65;99275.52;1852306;75;28137;-47
2023/04/07 00:28:38;;;;;;;0.30;0.30;;;;;;;24.88;31.63;99271.69;1850197;76;28127;-45
2023/04/07 00:31:27;;;;;;;0.23;0.23;;;;;;;24.90;31.63;99268.14;1854246;76;28138;-48
2023/04/07 00:34:15;;;;;;;0.30;0.30;;;;;;;24.89;31.61;99259.06;1866604;75;32031;-46
2023/04/07 00:37:05;;;;;;;0.20;0.20;;;;;;;24.91;31.64;99262.92;1817771;78;28246;-48
2023/04/07 00:39:55;;;;;;;0.50;0.30;;;;;;;24.88;31.65;99256.02;1843194;76;33083;-47
2023/04/07 00:42:43;;;;;;;0.20;0.20;;;;;;;24.92;31.68;99252.22;1878143;75;28520;-46
2023/04/07 00:45:32;;;;;;;0.30;0.30;;;;;;;24.92;31.67;99253.06;1881520;75;28048;-47
2023/04/07 00:48:21;;;;;;;0.20;0.20;;;;;;;24.91;31.70;99239.02;1855076;76;28009;-46
2023/04/07 00:51:09;;;;;;;0.60;0.30;;;;;;;24.90;31.71;99229.10;1861997;76;28040;-45
2023/04/07 00:53:58;;;;;;;0.40;0.40;;;;;;;24.87;31.79;99220.02;1855846;76;34859;-47
2023/04/07 00:56:47;;;;;;;0.20;0.20;;;;;;;24.85;31.81;99210.38;1852799;76;28044;-45
2023/04/07 00:59:36;;;;;;;0.30;0.30;;;;;;;24.89;31.77;99211.52;1863087;76;28067;-46
2023/04/07 01:02:57;;;;;;;0.27;0.27;;;;;;;24.89;31.84;99215.63;1820754;76;28188;-43
2023/04/07 01:05:58;;;;;;;0.25;0.25;;;;;;;24.91;31.79;99214.83;1847734;75;28148;-41
2023/04/07 01:08:55;;;;;;;0.30;0.30;;;;;;;24.90;31.84;99227.73;1821357;76;28451;-43
2023/04/07 01:11:49;;;;;;;0.88;0.28;;;;;;;24.90;31.87;99228.30;1859659;76;28099;-47
2023/04/07 01:14:41;;;;;;;0.20;0.20;;;;;;;24.91;31.82;99223.07;1853458;76;28049;-46
2023/04/07 01:17:37;;;;;;;0.40;0.40;;;;;;;24.94;31.85;99232.19;1849102;76;28017;-44
2023/04/07 01:20:28;;;;;;;0.20;0.20;;;;;;;24.96;31.80;99218.48;1860348;76;28032;-47
2023/04/07 01:23:26;;;;;;;0.25;0.25;;;;;;;24.99;31.82;99214.39;1866118;76;28165;-46
2023/04/07 01:26:27;;;;;;;0.40;0.40;;;;;;;25.00;31.85;99210.54;1875338;75;28093;-42
2023/04/07 01:29:21;;;;;;;0.30;0.30;;;;;;;25.02;31.87;99217.44;1870777;76;28224;-44
2023/04/07 01:32:12;;;;;;;0.10;0.10;;;;;;;25.03;31.88;99221.86;1879343;76;28060;-48
2023/04/07 01:35:02;;;;;;;1.10;0.35;;;;;;;25.04;31.88;99215.27;1875733;76;28129;-45
2023/04/07 01:37:52;;;;;;;0.30;0.30;;;;;;;25.06;31.91;99220.52;1877397;74;28124;-47
2023/04/07 01:40:42;;;;;;;0.20;0.20;;;;;;;25.09;31.87;99218.61;1878249;76;28126;-46
2023/04/07 01:43:32;;;;;;;0.33;0.33;;;;;;;25.12;31.84;99218.94;1852883;76;28123;-45
2023/04/07 01:46:21;;;;;;;0.30;0.30;;;;;;;25.11;31.83;99225.52;1885394;74;28067;-48
2023/04/07 01:49:12;;;;;;;0.23;0.23;;;;;;;25.13;31.87;99223.91;1878812;74;28100;-49
2023/04/07 01:52:01;;;;;;;0.20;0.20;;;;;;;25.15;31.92;99218.97;1868926;76;28174;-47
2023/04/07 01:54:50;;;;;;;0.40;0.30;;;;;;;25.13;32.01;99217.87;1866143;76;28028;-46
2023/04/07 01:57:38;;;;;;;0.30;0.30;;;;;;;25.18;31.95;99219.84;1868476;76;28040;-50
2023/04/07 02:00:28;;;;;;;0.20;0.20;;;;;;;25.17;31.91;99212.12;1866790;76;28107;-52
2023/04/07 02:03:20;;;;;;;0.20;0.20;;;;;;;25.18;31.95;99218.47;1875440;76;28593;-45
2023/04/07 02:06:12;;;;;;;0.20;0.20;;;;;;;25.18;31.92;99208.84;1873062;74;28102;-45
2023/04/07 02:09:04;;;;;;;0.10;0.10;;;;;;;25.18;31.94;99215.72;1850442;76;28104;-46
2023/04/07 02:11:55;;;;;;;0.20;0.20;;;;;;;25.17;31.98;99221.75;1861818;76;28141;-50
2023/04/07 02:14:44;;;;;;;0.30;0.30;;;;;;;25.18;31.98;99214.34;1864667;76;28110;-45
2023/04/07 02:17:37;;;;;;;0.30;0.30;;;;;;;25.17;31.94;99216.25;1855120;76;28124;-46
2023/04/07 02:20:27;;;;;;;0.35;0.23;;;;;;;25.19;31.93;99212.70;1878228;76;28236;-44
2023/04/07 02:23:16;;;;;;;0.20;0.20;;;;;;;25.19;31.93;99215.45;1877925;76;28091;-47
2023/04/07 02:26:05;;;;;;;0.20;0.20;;;;;;;25.21;31.88;99209.14;1871337;76;28104;-48
2023/04/07 02:28:53;;;;;;;0.10;0.10;;;;;;;25.23;31.87;99209.70;1852580;76;28096;-45
2023/04/07 02:31:41;;;;;;;0.30;0.30;;;;;;;25.17;31.88;99198.92;1866729;76;28047;-46
2023/04/07 02:34:30;;;;;;;0.25;0.25;;;;;;;25.24;31.84;99196.27;1868887;76;32932;-47
2023/04/07 02:37:18;;;;;;;0.20;0.20;;;;;;;25.23;31.83;99204.21;1868672;76;28115;-47
2023/04/07 02:40:08;;;;;;;0.23;0.23;;;;;;;25.27;31.80;99204.54;1853334;74;28098;-48
2023/04/07 02:42:56;;;;;;;0.33;0.33;;;;;;;25.27;31.77;99202.63;1854097;77;28060;-45
2023/04/07 02:45:44;;;;;;;0.23;0.23;;;;;;;25.27;31.79;99205.91;1850837;76;28178;-47
2023/04/07 02:48:33;;;;;;;0.20;0.20;;;;;;;25.29;31.76;99204.56;1853524;77;28179;-47
2023/04/07 02:51:22;;;;;;;0.20;0.20;;;;;;;25.30;31.68;99203.46;1838249;77;28178;-46
2023/04/07 02:54:11;;;;;;;0.30;0.30;;;;;;;25.28;31.75;99196.56;1868850;76;28257;-48
2023/04/07 02:57:00;;;;;;;0.20;0.20;;;;;;;25.27;31.73;99198.50;1854891;77;29977;-47
2023/04/07 02:59:49;;;;;;;0.10;0.10;;;;;;;25.26;31.67;99192.70;1856889;77;28165;-46
2023/04/07 03:02:38;;;;;;;0.30;0.30;;;;;;;25.26;31.68;99185.00;1865741;76;28134;-48
2023/04/07 03:05:27;;;;;;;0.20;0.20;;;;;;;25.27;31.66;99182.55;1855651;77;28048;-51
2023/04/07 03:08:15;;;;;;;0.30;0.30;;;;;;;25.26;31.68;99176.75;1855757;76;28153;-48
2023/04/07 03:11:05;;;;;;;0.30;0.30;;;;;;;25.27;31.67;99175.67;1859388;76;28126;-50
2023/04/07 03:13:53;;;;;;;0.80;0.40;;;;;;;25.26;31.60;99177.58;1855438;77;28157;-45
2023/04/07 03:16:43;;;;;;;0.20;0.20;;;;;;;25.28;31.45;99174.56;1856257;77;28033;-52
2023/04/07 03:19:33;;;;;;;0.23;0.23;;;;;;;25.26;31.41;99176.75;1857188;77;28157;-49
2023/04/07 03:22:21;;;;;;;0.30;0.30;;;;;;;25.27;31.35;99173.77;1855225;76;28046;-49
2023/04/07 03:25:11;;;;;;;0.25;0.25;;;;;;;25.27;31.29;99168.27;1854123;77;28106;-49
2023/04/07 03:27:59;;;;;;;0.30;0.30;;;;;;;25.25;31.30;99158.61;1854740;75;28153;-46
2023/04/07 03:30:49;;;;;;;0.30;0.30;;;;;;;25.28;31.24;99163.56;1867056;76;28084;-49
2023/04/07 03:33:39;;;;;;;0.30;0.30;;;;;;;25.28;31.27;99163.56;1845159;77;28296;-51
2023/04/07 03:36:30;;;;;;;0.30;0.30;;;;;;;25.29;31.15;99156.45;1850753;76;28169;-48
2023/04/07 03:39:21;;;;;;;0.30;0.30;;;;;;;25.29;31.15;99152.33;1855849;77;28131;-48
2023/04/07 03:42:11;;;;;;;0.30;0.30;;;;;;;25.28;31.16;99158.91;1844101;77;28033;-46
2023/04/07 03:44:59;;;;;;;0.42;0.37;;;;;;;25.29;31.15;99153.70;1848636;76;28052;-49
2023/04/07 03:47:48;;;;;;;0.30;0.30;;;;;;;25.29;31.15;99150.13;1853905;77;28185;-50
2023/04/07 03:50:38;;;;;;;0.30;0.30;;;;;;;25.27;31.13;99142.69;1858737;76;28163;-46
2023/04/07 03:53:28;;;;;;;0.30;0.30;;;;;;;25.28;31.05;99149.83;1868451;76;28151;-49
2023/04/07 03:56:17;;;;;;;0.40;0.40;;;;;;;25.27;31.01;99144.06;1864738;76;28173;-48
2023/04/07 03:59:07;;;;;;;0.25;0.25;;;;;;;25.25;31.02;99137.99;1856421;77;28048;-49
2023/04/07 04:01:57;;;;;;;0.37;0.37;;;;;;;25.25;31.08;99136.05;1854695;75;28102;-48
2023/04/07 04:04:46;;;;;;;0.33;0.33;;;;;;;25.26;31.03;99143.76;1853214;76;28440;-50
2023/04/07 04:07:35;;;;;;;0.30;0.30;;;;;;;25.26;30.90;99137.72;1868807;76;28113;-49
2023/04/07 04:10:24;;;;;;;0.30;0.30;;;;;;;25.26;30.99;99135.52;1858473;76;28121;-48
2023/04/07 04:13:14;;;;;;;0.30;0.30;;;;;;;25.25;31.14;99140.17;1845351;77;28178;-46
2023/04/07 04:16:04;;;;;;;0.20;0.20;;;;;;;25.25;31.25;99122.88;1849832;74;28084;-46
2023/04/07 04:18:52;;;;;;;0.40;0.40;;;;;;;25.27;31.24;99128.94;1856358;77;28117;-49
2023/04/07 04:21:41;;;;;;;0.40;0.40;;;;;;;25.26;31.24;99127.27;1840100;77;28060;-46
2023/04/07 04:24:30;;;;;;;0.40;0.40;;;;;;;25.24;31.24;99128.91;1834215;77;28237;-46
2023/04/07 04:27:20;;;;;;;0.40;0.40;;;;;;;25.24;31.27;99123.95;1862346;76;28200;-48
2023/04/07 04:30:11;;;;;;;0.30;0.30;;;;;;;25.24;31.27;99136.32;1858145;76;28079;-49
2023/04/07 04:33:10;;;;;;;0.20;0.20;;;;;;;25.21;31.33;99136.83;1851624;77;28141;-48
2023/04/07 04:36:00;;;;;;;0.83;0.20;;;;;;;25.21;31.37;99135.45;1845802;77;28056;-46
2023/04/07 04:38:49;;;;;;;0.35;0.35;;;;;;;25.24;31.33;99137.70;1868802;76;28081;-49
2023/04/07 04:41:38;;;;;;;0.20;0.20;;;;;;;25.21;31.30;99139.05;1860876;75;28128;-48
2023/04/07 04:44:29;;;;;;;0.17;0.17;;;;;;;25.21;31.33;99132.17;1852519;76;28180;-45
2023/04/07 04:47:19;;;;;;;0.40;0.30;;;;;;;25.21;31.36;99131.33;1867324;76;28172;-45
2023/04/07 04:50:09;;;;;;;0.20;0.20;;;;;;;25.22;31.38;99133.01;1856364;77;28089;-46
2023/04/07 04:52:58;;;;;;;0.10;0.10;;;;;;;25.21;31.34;99119.80;1856031;77;28118;-48
2023/04/07 04:55:50;;;;;;;0.33;0.33;;;;;;;25.22;31.37;99119.27;1853825;77;28209;-50
2023/04/07 04:58:41;;;;;;;0.40;0.25;;;;;;;25.24;31.32;99115.70;1865021;76;34384;-46
2023/04/07 05:01:31;;;;;;;0.70;0.30;;;;;;;25.22;31.31;99120.09;1856532;77;28624;-49
2023/04/07 05:04:21;;;;;;;0.30;0.30;;;;;;;25.24;31.36;99108.83;1842939;77;28089;-49
2023/04/07 05:07:11;;;;;;;0.30;0.30;;;;;;;25.23;31.41;99107.16;1821898;78;28259;-49
2023/04/07 05:10:00;;;;;;;0.37;0.37;;;;;;;25.23;31.39;99112.12;1797567;79;28262;-47
2023/04/07 05:12:51;;;;;;;0.30;0.30;;;;;;;25.23;31.36;99109.91;1810329;77;28235;-49
2023/04/07 05:15:41;;;;;;;0.35;0.35;;;;;;;25.21;31.40;99106.05;1823319;78;28150;-47
2023/04/07 05:18:31;;;;;;;0.40;0.30;;;;;;;25.24;31.41;99108.83;1819253;78;28342;-50
2023/04/07 05:21:20;;;;;;;0.23;0.23;;;;;;;25.23;31.40;99116.78;1802318;78;28278;-45
2023/04/07 05:24:10;;;;;;;0.60;0.30;;;;;;;25.22;31.44;99121.47;1798036;78;28208;-49
2023/04/07 05:27:00;;;;;;;0.30;0.30;;;;;;;25.23;31.43;99118.98;1821921;78;28170;-47
2023/04/07 05:29:48;;;;;;;0.20;0.20;;;;;;;25.25;31.39;99118.75;1814967;78;28308;-46
2023/04/07 05:32:38;;;;;;;0.30;0.30;;;;;;;25.25;31.56;99117.37;1888915;75;28105;-47
2023/04/07 05:35:29;;;;;;;0.20;0.20;;;;;;;25.26;31.48;99117.10;1866531;75;28085;-48
2023/04/07 05:38:18;;;;;;;0.20;0.20;;;;;;;25.24;31.40;99110.20;1883754;75;28106;-47
2023/04/07 05:41:06;;;;;;;0.50;0.50;;;;;;;25.20;30.94;99100.83;1864846;76;28051;-49
2023/04/07 05:43:56;;;;;;;0.30;0.30;;;;;;;25.17;31.20;99101.34;1857028;76;28047;-45
2023/04/07 05:46:44;;;;;;;0.40;0.40;;;;;;;25.18;31.31;99112.64;1861322;76;28525;-49
2023/04/07 05:49:35;;;;;;;0.40;0.40;;;;;;;25.16;31.40;99122.50;1831705;77;28103;-48
2023/04/07 05:52:25;;;;;;;0.30;0.30;;;;;;;25.08;30.43;99116.11;1879556;75;28038;-47
2023/04/07 05:55:15;;;;;;;0.20;0.20;;;;;;;25.09;30.41;99116.92;1872495;75;28115;-47
2023/04/07 05:58:04;;;;;;;0.10;0.10;;;;;;;25.08;30.93;99116.66;1870583;75;28056;-44
2023/04/07 06:00:53;;;;;;;0.37;0.37;;;;;;;25.08;30.75;99113.36;1865010;76;28150;-47
2023/04/07 06:03:42;;;;;;;0.30;0.30;;;;;;;25.09;30.61;99104.02;1877149;75;28004;-49
2023/04/07 06:06:32;;;;;;;0.30;0.30;;;;;;;25.08;30.75;99118.86;1891465;75;28456;-49
2023/04/07 06:09:24;;;;;;;0.33;0.33;;;;;;;25.09;30.82;99124.63;1854172;76;28056;-46
2023/04/07 06:12:13;;;;;;;0.40;0.40;;;;;;;25.08;30.93;99128.48;1879227;75;28112;-47
2023/04/07 06:15:02;;;;;;;0.33;0.33;;;;;;;25.07;30.95;99136.42;1862125;75;28123;-47
2023/04/07 06:17:50;;;;;;;0.20;0.20;;;;;;;25.07;31.01;99137.80;1887061;75;28068;-47
2023/04/07 06:20:39;;;;;;;0.20;0.20;;;;;;;25.08;31.05;99130.39;1890134;75;28019;-48
2023/04/07 06:23:27;;;;;;;0.30;0.30;;;;;;;25.13;31.06;99124.95;1852705;75;28134;-46
2023/04/07 06:26:16;;;;;;;2.20;0.30;;;;;;;25.12;31.07;99126.03;1852033;76;28056;-48
2023/04/07 06:29:04;;;;;;;0.30;0.30;;;;;;;25.05;31.13;99129.53;1801909;78;28175;-53
2023/04/07 06:31:53;;;;;;;0.10;0.10;;;;;;;24.97;31.23;99132.19;1860539;75;28061;-46
2023/04/07 06:34:41;;;;;;;0.23;0.23;;;;;;;24.93;31.27;99124.19;1857573;75;28135;-52
2023/04/07 06:37:30;;;;;;;0.30;0.30;;;;;;;24.91;31.28;99124.99;1821521;78;28143;-47
2023/04/07 06:40:19;;;;;;;0.30;0.30;;;;;;;24.89;31.37;99137.33;1833346;77;28157;-48
2023/04/07 06:43:07;;;;;;;0.23;0.20;;;;;;;24.89;31.40;99140.08;1830872;77;28130;-49
2023/04/07 06:46:04;;;;;;;0.20;0.20;;;;;;;24.90;31.40;99134.88;1798493;78;28154;-47
2023/04/07 06:48:53;;;;;;;0.23;0.23;;;;;;;24.89;31.43;99131.83;1812094;78;28171;-47
2023/04/07 06:51:41;;;;;;;0.30;0.30;;;;;;;24.90;31.44;99137.63;1801044;78;28119;-50
2023/04/07 06:54:30;;;;;;;0.37;0.30;;;;;;;24.91;31.46;99144.77;1809290;79;28294;-45
2023/04/07 06:57:19;;;;;;;0.20;0.20;;;;;;;24.90;31.44;99157.66;1788348;79;28306;-48
2023/04/07 07:00:09;;;;;;;0.23;0.23;;;;;;;24.92;31.44;99161.55;1825141;77;28063;-48
2023/04/07 07:02:57;;;;;;;0.30;0.30;;;;;;;24.94;31.46;99165.70;1803407;78;28528;-48
2023/04/07 07:05:46;;;;;;;0.80;0.30;;;;;;;24.97;31.45;99172.03;1815428;78;37456;-44
2023/04/07 07:08:34;;;;;;;0.30;0.30;;;;;;;24.97;31.48;99172.61;1805357;78;28153;-48
2023/04/07 07:11:22;;;;;;;0.33;0.30;;;;;;;24.99;31.52;99178.13;1822783;77;28166;-49
2023/04/07 07:14:11;;;;;;;0.53;0.40;;;;;;;25.06;31.52;99180.67;1807770;76;28158;-45
2023/04/07 07:16:59;;;;;;;0.23;0.23;;;;;;;25.17;31.45;99186.02;1825097;77;28221;-48
2023/04/07 07:19:47;;;;;;;0.30;0.30;;;;;;;25.25;31.36;99184.73;1835671;77;28186;-48
2023/04/07 07:22:35;;;;;;;0.20;0.20;;;;;;;25.28;31.29;99179.53;1824937;76;28571;-49
2023/04/07 07:25:25;;;;;;;0.20;0.20;;;;;;;25.30;31.28;99186.97;1835218;77;28221;-47
2023/04/07 07:28:14;;;;;;;0.30;0.30;;;;;;;25.30;31.23;99187.50;1815701;78;28162;-46
2023/04/07 07:31:17;;;;;;;0.30;0.30;;;;;;;25.30;31.28;99190.25;1820991;77;28191;-50
2023/04/07 07:34:00;;;;;;;0.30;0.30;;;;;;;25.29;31.31;99189.45;1795580;79;28282;-48
2023/04/07 07:36:49;;;;;;;0.30;0.30;;;;;;;25.30;31.32;99187.50;1813422;77;28316;-47
2023/04/07 07:39:37;;;;;;;0.70;0.40;;;;;;;25.30;31.31;99193.84;1800501;79;28343;-50
2023/04/07 07:42:26;;;;;;;0.20;0.20;;;;;;;25.30;31.36;99197.12;1819765;78;28078;-49
2023/04/07 07:45:14;;;;;;;0.23;0.23;;;;;;;25.30;31.34;99202.63;1794058;79;33110;-50
2023/04/07 07:48:03;;;;;;;0.40;0.20;;;;;;;25.29;31.39;99200.98;1807674;77;28402;-49
2023/04/07 07:50:51;;;;;;;0.20;0.20;;;;;;;25.29;31.43;99206.48;1787161;79;28747;-48
2023/04/07 07:53:39;;;;;;;0.68;0.37;;;;;;;25.29;31.41;99212.81;1790357;78;28345;-48
2023/04/07 07:56:28;;;;;;;0.28;0.28;;;;;;;25.30;31.43;99215.84;1802117;79;28257;-47
2023/04/07 07:59:16;;;;;;;0.40;0.40;;;;;;;25.28;31.44;99224.89;1806525;79;28822;-51
2023/04/07 08:02:04;;;;;;;0.40;0.40;;;;;;;25.27;31.47;99238.91;1807876;77;28322;-46
2023/04/07 08:04:53;;;;;;;0.20;0.20;;;;;;;25.26;31.50;99245.48;1853210;75;28020;-46
2023/04/07 08:07:42;;;;;;;0.37;0.30;;;;;;;25.25;31.51;99247.96;1855271;75;28259;-48
2023/04/07 08:10:31;;;;;;;0.40;0.40;;;;;;;25.24;31.52;99254.00;1812624;77;28122;-51
2023/04/07 08:13:19;;;;;;;0.30;0.30;;;;;;;25.16;31.53;99253.59;1809971;77;28433;-46
2023/04/07 08:16:07;;;;;;;1.30;0.40;;;;;;;25.25;31.54;99268.58;1806226;77;31335;-52
2023/04/07 08:18:56;;;;;;;0.30;0.30;;;;;;;25.26;31.60;99255.10;1796426;77;28412;-47
2023/04/07 08:21:44;;;;;;;0.30;0.30;;;;;;;25.25;31.59;99263.89;1817436;78;28176;-48
2023/04/07 08:24:33;;;;;;;0.20;0.20;;;;;;;25.23;31.55;99270.19;1801569;77;28353;-46
2023/04/07 08:27:21;;;;;;;0.40;0.20;;;;;;;25.25;31.57;99281.75;1792764;79;28374;-50
2023/04/07 08:30:10;;;;;;;0.23;0.23;;;;;;;25.26;31.59;99287.56;1809168;79;28243;-49
2023/04/07 08:32:59;;;;;;;0.23;0.23;;;;;;;25.25;31.62;99287.83;1788421;78;28238;-47
2023/04/07 08:35:47;;;;;;;0.40;0.40;;;;;;;25.24;31.62;99282.03;1853513;76;28151;-46
2023/04/07 08:38:35;;;;;;;0.37;0.37;;;;;;;25.24;31.64;99283.41;1870831;75;28087;-46
2023/04/07 08:41:39;;;;;;;0.28;0.28;;;;;;;25.26;31.60;99288.09;1864908;76;28269;-48
2023/04/07 08:44:29;;;;;;;0.20;0.20;;;;;;;25.27;31.63;99298.02;1857108;76;28151;-49
2023/04/07 08:47:19;;;;;;;0.20;0.20;;;;;;;25.23;31.67;99299.59;1863547;75;28027;-44
2023/04/07 08:50:10;;;;;;;0.30;0.30;;;;;;;25.25;31.67;99302.38;1859876;74;28227;-45
2023/04/07 08:53:00;;;;;;;1.15;0.47;;;;;;;25.24;31.72;99299.36;1862754;76;28092;-47
2023/04/07 08:55:48;;;;;;;0.30;0.30;;;;;;;25.28;31.78;99305.16;1863792;76;28404;-48
2023/04/07 08:58:38;;;;;;;0.20;0.20;;;;;;;25.27;31.77;99304.35;1869388;76;28228;-47
2023/04/07 09:01:27;;;;;;;0.30;0.30;;;;;;;25.26;31.78;99303.22;1860382;76;28044;-47
2023/04/07 09:04:16;;;;;;;0.40;0.40;;;;;;;25.24;31.87;99315.02;1858016;75;28096;-50
2023/04/07 09:07:05;;;;;;;0.40;0.40;;;;;;;25.22;32.40;99313.91;1871062;75;28064;-48
2023/04/07 09:09:55;;;;;;;0.45;0.45;;;;;;;25.23;32.36;99319.67;1881306;75;28128;-46
2023/04/07 09:12:44;;;;;;;0.50;0.50;;;;;;;25.23;32.35;99320.22;1861742;76;28256;-45
2023/04/07 09:15:33;;;;;;;0.50;0.50;;;;;;;25.24;32.26;99325.47;1858558;76;28169;-45
2023/04/07 09:18:21;;;;;;;0.40;0.40;;;;;;;25.23;32.33;99328.46;1838198;76;28206;-47
2023/04/07 09:21:10;;;;;;;0.50;0.50;;;;;;;25.26;32.32;99327.95;1848004;76;31061;-48
2023/04/07 09:23:59;;;;;;;0.47;0.47;;;;;;;25.25;32.33;99333.19;1850722;76;28166;-44
2023/04/07 09:26:47;;;;;;;0.50;0.50;;;;;;;25.23;32.38;99334.80;1877529;75;28483;-45
2023/04/07 09:29:35;;;;;;;2.22;0.68;;;;;;;25.18;32.34;99321.55;1861790;75;28035;-46
2023/04/07 09:32:38;;;;;;;0.50;0.50;;;;;;;25.16;32.40;99320.41;1868843;75;28174;-48
2023/04/07 09:35:28;;;;;;;0.50;0.50;;;;;;;25.25;32.40;99340.06;1856442;76;28126;-45
2023/04/07 09:38:16;;;;;;;0.60;0.60;;;;;;;25.22;32.47;99333.69;1853446;77;27976;-45
2023/04/07 09:41:14;;;;;;;0.60;0.60;;;;;;;25.25;32.44;99337.31;1848528;77;28325;-46
2023/04/07 09:44:02;;;;;;;0.50;0.50;;;;;;;25.21;32.48;99330.64;1832045;77;28173;-44
2023/04/07 09:46:56;;;;;;;0.50;0.50;;;;;;;25.20;32.50;99338.62;1845809;77;28155;-47
2023/04/07 09:49:53;;;;;;;0.50;0.50;;;;;;;25.17;32.55;99341.33;1855473;77;28182;-45
2023/04/07 09:52:52;;;;;;;0.50;0.50;;;;;;;25.19;32.52;99339.16;1836670;76;28174;-45
2023/04/07 09:55:42;;;;;;;0.40;0.40;;;;;;;25.18;32.53;99332.55;1852749;76;28136;-45
2023/04/07 09:58:30;;;;;;;0.50;0.50;;;;;;;25.18;32.52;99332.55;1855776;76;28119;-43
2023/04/07 10:01:20;;;;;;;0.42;0.42;;;;;;;25.19;32.51;99330.06;1837974;77;28054;-45
2023/04/07 10:04:09;;;;;;;0.42;0.42;;;;;;;25.19;32.52;99328.69;1855158;77;28056;-47
2023/04/07 10:06:59;;;;;;;0.47;0.47;;;;;;;25.19;32.51;99326.78;1864734;76;28282;-43
2023/04/07 10:09:47;;;;;;;0.60;0.60;;;;;;;25.19;32.51;99329.53;1845529;77;28201;-44
2023/04/07 10:12:38;;;;;;;0.57;0.57;;;;;;;25.18;32.50;99328.42;1848393;77;28167;-46
2023/04/07 10:15:26;;;;;;;0.70;0.70;;;;;;;25.18;32.45;99327.05;1848387;77;28142;-43
2023/04/07 10:18:17;;;;;;;0.70;0.70;;;;;;;25.17;32.48;99320.71;1864306;75;28099;-47
2023/04/07 10:21:08;;;;;;;0.68;0.68;;;;;;;25.20;32.43;99321.58;1867728;76;28140;-45
2023/04/07 10:24:02;;;;;;;0.70;0.70;;;;;;;25.20;32.39;99318.84;1850173;77;28433;-45
2023/04/07 10:26:53;;;;;;;0.80;0.63;;;;;;;25.22;32.34;99317.19;1852222;76;28207;-47
2023/04/07 10:29:44;;;;;;;0.73;0.73;;;;;;;25.17;32.40;99316.59;1843863;77;28160;-45
2023/04/07 10:32:32;;;;;;;0.90;0.80;;;;;;;25.21;32.39;99321.02;1855346;77;28123;-43
2023/04/07 10:35:22;;;;;;;0.60;0.60;;;;;;;25.22;32.36;99311.70;1840215;76;28105;-47
2023/04/07 10:38:15;;;;;;;0.72;0.72;;;;;;;25.18;32.38;99310.55;1852162;77;28141;-45
2023/04/07 10:41:37;;;;;;;0.77;0.70;;;;;;;25.21;32.38;99302.61;1841010;77;28078;-45
2023/04/07 10:44:43;;;;;;;0.68;0.68;;;;;;;25.20;32.35;99305.09;1852530;77;28057;-43
2023/04/07 10:47:31;;;;;;;0.72;0.72;;;;;;;25.14;32.41;99294.27;1859090;76;28206;-43
2023/04/07 10:50:24;;;;;;;0.57;0.57;;;;;;;25.14;32.42;99289.60;1868258;75;28069;-44
2023/04/07 10:53:15;;;;;;;0.60;0.60;;;;;;;25.16;32.39;99285.21;1860836;76;28117;-45
2023/04/07 10:56:04;;;;;;;0.70;0.70;;;;;;;25.17;32.38;99278.10;1849562;77;28267;-47
2023/04/07 10:58:56;;;;;;;0.83;0.83;;;;;;;25.16;32.36;99279.72;1865979;76;28132;-46
2023/04/07 11:01:44;;;;;;;0.72;0.72;;;;;;;25.16;32.43;99281.09;1866605;76;28965;-44
2023/04/07 11:04:38;;;;;;;0.70;0.70;;;;;;;25.19;32.38;99277.84;1830373;77;28178;-46
2023/04/07 11:07:44;;;;;;;0.90;0.90;;;;;;;25.20;32.32;99268.52;1839775;77;28166;-47
2023/04/07 11:10:32;;;;;;;0.80;0.80;;;;;;;25.21;32.35;99264.66;1836791;75;28201;-47
2023/04/07 11:13:21;;;;;;;0.70;0.70;;;;;;;25.20;32.31;99260.27;1829033;75;28163;-44
2023/04/07 11:16:10;;;;;;;0.68;0.68;;;;;;;25.20;32.33;99248.73;1877466;75;28129;-45
2023/04/07 11:18:58;;;;;;;0.80;0.80;;;;;;;25.21;32.31;99234.42;1847734;75;28092;-49
2023/04/07 11:21:47;;;;;;;0.88;0.88;;;;;;;25.21;32.28;99238.55;1850950;75;28115;-45
2023/04/07 11:24:38;;;;;;;1.00;1.00;;;;;;;25.24;32.25;99236.66;1852333;75;28039;-45
2023/04/07 11:27:27;;;;;;;0.90;0.90;;;;;;;25.25;32.17;99231.47;1854290;77;28160;-48
2023/04/07 11:30:16;;;;;;;0.70;0.70;;;;;;;25.25;32.14;99223.22;1852449;77;28671;-43
2023/04/07 11:33:05;;;;;;;0.90;0.90;;;;;;;25.28;32.14;99230.92;1854921;77;28276;-46
2023/04/07 11:35:59;;;;;;;0.73;0.73;;;;;;;25.29;32.10;99220.23;1850971;76;28328;-48
2023/04/07 11:38:48;;;;;;;0.70;0.70;;;;;;;25.27;32.11;99208.13;1842754;76;28186;-45
2023/04/07 11:41:39;;;;;;;0.90;0.90;;;;;;;25.28;32.10;99200.14;1864879;76;28239;-48
2023/04/07 11:44:28;;;;;;;0.70;0.70;;;;;;;25.26;32.12;99195.45;1865866;76;28289;-47
2023/04/07 11:47:16;;;;;;;0.73;0.73;;;;;;;25.28;32.09;99196.02;1868531;76;28135;-46
2023/04/07 11:50:05;;;;;;;0.80;0.80;;;;;;;25.30;32.08;99186.97;1877186;76;28180;-46
2023/04/07 11:52:54;;;;;;;0.80;0.80;;;;;;;25.31;32.08;99185.05;1875868;76;28103;-45
2023/04/07 11:55:42;;;;;;;0.70;0.70;;;;;;;25.31;32.05;99179.02;1874772;76;28040;-45
2023/04/07 11:58:31;;;;;;;0.80;0.80;;;;;;;25.31;32.04;99174.89;1876082;76;28048;-43
2023/04/07 12:01:20;;;;;;;0.82;0.82;;;;;;;25.32;32.04;99167.48;1860253;76;28221;-46
2023/04/07 12:04:13;;;;;;;0.70;0.70;;;;;;;25.32;32.06;99157.28;1889444;74;28096;-44
2023/04/07 12:07:10;;;;;;;0.90;0.90;;;;;;;25.34;32.08;99159.80;1842116;77;28183;-46
2023/04/07 12:09:58;;;;;;;0.80;0.80;;;;;;;25.35;32.12;99163.65;1814076;77;28192;-51
2023/04/07 12:12:48;;;;;;;1.05;1.05;;;;;;;25.36;32.09;99172.73;1855910;76;28570;-47
2023/04/07 12:15:36;;;;;;;0.88;0.88;;;;;;;25.36;32.12;99157.61;1840744;77;28207;-48
2023/04/07 12:18:25;;;;;;;0.90;0.90;;;;;;;25.38;32.09;99162.30;1856148;76;28070;-43
2023/04/07 12:21:14;;;;;;;0.80;0.80;;;;;;;25.36;32.14;99158.98;1805076;78;38566;-44
2023/04/07 12:24:03;;;;;;;0.90;0.90;;;;;;;25.36;32.17;99148.83;1819989;78;28294;-47
2023/04/07 12:26:51;;;;;;;0.70;0.70;;;;;;;25.38;32.16;99155.42;1806309;77;28390;-46
2023/04/07 12:29:39;;;;;;;0.80;0.80;;;;;;;25.40;32.11;99145.83;1837407;76;30151;-51
2023/04/07 12:32:28;;;;;;;0.90;0.90;;;;;;;25.39;32.12;99141.41;1822987;77;28090;-49
2023/04/07 12:35:16;;;;;;;0.90;0.88;;;;;;;25.41;32.12;99148.04;1848292;76;32012;-48
2023/04/07 12:38:05;;;;;;;0.88;0.88;;;;;;;25.38;32.18;99143.05;1832020;76;28141;-49
2023/04/07 12:40:53;;;;;;;1.22;1.15;;;;;;;25.39;32.18;99137.28;1857814;76;28251;-51
2023/04/07 12:43:41;;;;;;;0.95;0.90;;;;;;;25.32;32.15;99112.48;1863308;76;28381;-47
2023/04/07 12:46:29;;;;;;;0.88;0.88;;;;;;;25.40;32.15;99122.45;1848801;76;28177;-46
2023/04/07 12:49:18;;;;;;;0.78;0.78;;;;;;;25.39;32.19;99117.23;1860434;75;28367;-47
2023/04/07 12:52:06;;;;;;;0.90;0.90;;;;;;;25.39;32.21;99115.85;1861109;76;28131;-44
2023/04/07 12:54:55;;;;;;;0.85;0.85;;;;;;;25.38;32.24;99115.55;1853626;76;28684;-47
2023/04/07 12:57:44;;;;;;;1.20;1.00;;;;;;;25.37;32.27;99112.51;1867104;76;28096;-47
2023/04/07 13:00:33;;;;;;;1.10;1.10;;;;;;;25.37;32.23;99109.76;1845289;76;28068;-43
2023/04/07 13:03:21;;;;;;;0.93;0.90;;;;;;;25.36;32.16;99100.70;1853326;76;28155;-42
2023/04/07 13:06:10;;;;;;;0.85;0.85;;;;;;;25.34;32.09;99091.06;1829478;76;28158;-45
2023/04/07 13:08:58;;;;;;;0.78;0.78;;;;;;;25.33;32.12;99082.52;1861136;76;28330;-46
2023/04/07 13:11:47;;;;;;;0.70;0.70;;;;;;;25.34;32.11;99076.73;1863143;76;28149;-44
2023/04/07 13:14:35;;;;;;;1.00;0.90;;;;;;;25.36;32.03;99071.00;1860940;75;28297;-44
2023/04/07 13:17:24;;;;;;;0.72;0.72;;;;;;;25.37;31.95;99071.27;1852443;74;28499;-41
2023/04/07 13:20:12;;;;;;;0.70;0.70;;;;;;;25.37;31.88;99063.02;1846881;75;35666;-43